sensor_id;sensor_type;location;lat;lon;timestamp;pressure;altitude;pressure_sealevel;temperature;humidity
11343;BME280;5726;42.160;24.746;2023-03-25T00:01:20;99329.81;;;12.88;72.07
11343;BME280;5726;42.160;24.746;2023-03-25T00:03:50;99324.50;;;12.96;71.42
11343;BME280;5726;42.160;24.746;2023-03-25T00:06:18;99325.72;;;12.90;71.88
11343;BME280;5726;42.160;24.746;2023-03-25T00:08:44;99333.72;;;13.03;70.94
11343;BME280;5726;42.160;24.746;2023-03-25T00:11:10;99332.09;;;12.81;72.01
11343;BME280;5726;42.160;24.746;2023-03-25T00:13:35;99326.13;;;12.84;71.86
11343;BME280;5726;42.160;24.746;2023-03-25T00:16:02;99319.53;;;12.89;72.07
11343;BME280;5726;42.160;24.746;2023-03-25T00:18:30;99325.66;;;13.03;71.41
11343;BME280;5726;42.160;24.746;2023-03-25T00:21:05;99321.00;;;12.74;72.87
11343;BME280;5726;42.160;24.746;2023-03-25T00:23:35;99314.75;;;12.43;74.80
11343;BME280;5726;42.160;24.746;2023-03-25T00:26:00;99310.38;;;12.47;74.75
11343;BME280;5726;42.160;24.746;2023-03-25T00:28:29;99303.25;;;12.73;73.73
11343;BME280;5726;42.160;24.746;2023-03-25T00:31:01;99314.09;;;12.59;75.13
11343;BME280;5726;42.160;24.746;2023-03-25T00:33:28;99310.47;;;12.64;75.11
11343;BME280;5726;42.160;24.746;2023-03-25T00:35:54;99304.25;;;12.77;75.75
11343;BME280;5726;42.160;24.746;2023-03-25T00:38:31;99308.22;;;13.01;74.64
11343;BME280;5726;42.160;24.746;2023-03-25T00:41:10;99308.03;;;12.54;76.72
11343;BME280;5726;42.160;24.746;2023-03-25T00:43:36;99292.41;;;12.56;77.10
11343;BME280;5726;42.160;24.746;2023-03-25T00:46:01;99284.81;;;12.58;77.75
11343;BME280;5726;42.160;24.746;2023-03-25T00:48:27;99294.50;;;12.67;77.07
11343;BME280;5726;42.160;24.746;2023-03-25T00:50:52;99305.97;;;12.94;75.65
11343;BME280;5726;42.160;24.746;2023-03-25T00:53:17;99298.22;;;13.01;74.79
11343;BME280;5726;42.160;24.746;2023-03-25T00:55:43;99295.00;;;12.69;77.04
11343;BME280;5726;42.160;24.746;2023-03-25T00:58:08;99291.06;;;12.89;75.55
11343;BME280;5726;42.160;24.746;2023-03-25T01:00:34;99294.72;;;12.71;76.59
11343;BME280;5726;42.160;24.746;2023-03-25T01:03:00;99293.25;;;12.43;77.77
11343;BME280;5726;42.160;24.746;2023-03-25T01:05:28;99288.41;;;12.10;79.62
11343;BME280;5726;42.160;24.746;2023-03-25T01:07:54;99287.13;;;11.94;80.93
11343;BME280;5726;42.160;24.746;2023-03-25T01:10:20;99293.81;;;12.18;79.89
11343;BME280;5726;42.160;24.746;2023-03-25T01:12:45;99295.34;;;12.11;80.30
11343;BME280;5726;42.160;24.746;2023-03-25T01:15:11;99290.31;;;11.96;81.41
11343;BME280;5726;42.160;24.746;2023-03-25T01:17:36;99288.50;;;12.05;80.33
11343;BME280;5726;42.160;24.746;2023-03-25T01:20:02;99272.38;;;12.05;81.87
11343;BME280;5726;42.160;24.746;2023-03-25T01:22:30;99280.03;;;12.11;81.11
11343;BME280;5726;42.160;24.746;2023-03-25T01:24:56;99270.78;;;12.04;80.89
11343;BME280;5726;42.160;24.746;2023-03-25T01:27:21;99269.97;;;12.03;81.36
11343;BME280;5726;42.160;24.746;2023-03-25T01:29:48;99265.38;;;12.39;79.13
11343;BME280;5726;42.160;24.746;2023-03-25T01:32:14;99261.22;;;12.33;79.30
11343;BME280;5726;42.160;24.746;2023-03-25T01:34:40;99262.72;;;12.26;79.73
11343;BME280;5726;42.160;24.746;2023-03-25T01:37:07;99259.50;;;12.37;78.42
11343;BME280;5726;42.160;24.746;2023-03-25T01:39:34;99256.09;;;11.88;81.18
11343;BME280;5726;42.160;24.746;2023-03-25T01:41:59;99255.31;;;11.88;81.38
11343;BME280;5726;42.160;24.746;2023-03-25T01:46:52;99248.88;;;11.75;81.68
11343;BME280;5726;42.160;24.746;2023-03-25T01:49:24;99252.69;;;11.34;84.85
11343;BME280;5726;42.160;24.746;2023-03-25T01:51:54;99250.59;;;11.58;83.55
11343;BME280;5726;42.160;24.746;2023-03-25T01:54:20;99242.09;;;11.78;82.33
11343;BME280;5726;42.160;24.746;2023-03-25T01:56:48;99236.19;;;11.54;83.89
11343;BME280;5726;42.160;24.746;2023-03-25T01:59:16;99236.47;;;11.66;82.69
11343;BME280;5726;42.160;24.746;2023-03-25T02:01:45;99238.16;;;11.62;82.82
11343;BME280;5726;42.160;24.746;2023-03-25T02:04:12;99226.81;;;11.65;82.23
11343;BME280;5726;42.160;24.746;2023-03-25T02:06:48;99228.25;;;11.49;83.79
11343;BME280;5726;42.160;24.746;2023-03-25T02:09:22;99222.25;;;11.65;82.05
11343;BME280;5726;42.160;24.746;2023-03-25T02:11:49;99227.03;;;11.55;82.86
11343;BME280;5726;42.160;24.746;2023-03-25T02:14:21;99232.09;;;11.43;83.52
11343;BME280;5726;42.160;24.746;2023-03-25T02:16:53;99230.03;;;11.13;86.31
11343;BME280;5726;42.160;24.746;2023-03-25T02:25:34;99226.84;;;11.51;83.11
11343;BME280;5726;42.160;24.746;2023-03-25T02:41:49;99213.31;;;11.56;82.22
11343;BME280;5726;42.160;24.746;2023-03-25T02:46:54;99223.66;;;11.23;83.38
11343;BME280;5726;42.160;24.746;2023-03-25T02:49:28;99215.72;;;11.04;85.10
11343;BME280;5726;42.160;24.746;2023-03-25T02:51:59;99198.13;;;11.25;84.25
11343;BME280;5726;42.160;24.746;2023-03-25T02:54:28;99205.59;;;11.28;84.02
11343;BME280;5726;42.160;24.746;2023-03-25T02:56:55;99205.16;;;11.35;83.27
11343;BME280;5726;42.160;24.746;2023-03-25T02:59:23;99198.47;;;11.59;81.67
11343;BME280;5726;42.160;24.746;2023-03-25T03:01:55;99192.78;;;11.74;80.06
11343;BME280;5726;42.160;24.746;2023-03-25T03:04:24;99199.19;;;11.38;82.41
11343;BME280;5726;42.160;24.746;2023-03-25T03:06:51;99188.66;;;11.54;80.72
11343;BME280;5726;42.160;24.746;2023-03-25T03:12:31;99178.81;;;11.37;83.47
11343;BME280;5726;42.160;24.746;2023-03-25T03:15:19;99194.25;;;11.18;85.21
11343;BME280;5726;42.160;24.746;2023-03-25T03:23:29;99180.31;;;11.29;82.03
11343;BME280;5726;42.160;24.746;2023-03-25T03:26:11;99181.75;;;11.13;83.33
11343;BME280;5726;42.160;24.746;2023-03-25T03:28:53;99176.78;;;10.94;85.02
11343;BME280;5726;42.160;24.746;2023-03-25T03:31:43;99179.38;;;10.98;85.64
11343;BME280;5726;42.160;24.746;2023-03-25T03:34:14;99173.94;;;11.39;82.50
11343;BME280;5726;42.160;24.746;2023-03-25T03:36:44;99167.81;;;11.11;83.89
11343;BME280;5726;42.160;24.746;2023-03-25T03:39:25;99167.22;;;11.14;83.72
11343;BME280;5726;42.160;24.746;2023-03-25T03:41:55;99180.31;;;11.29;82.49
11343;BME280;5726;42.160;24.746;2023-03-25T03:44:28;99175.78;;;11.16;83.29
11343;BME280;5726;42.160;24.746;2023-03-25T03:46:59;99183.50;;;11.31;83.31
11343;BME280;5726;42.160;24.746;2023-03-25T03:49:41;99181.19;;;11.38;82.62
11343;BME280;5726;42.160;24.746;2023-03-25T03:52:15;99179.50;;;11.55;82.22
11343;BME280;5726;42.160;24.746;2023-03-25T03:54:49;99184.16;;;11.63;81.00
11343;BME280;5726;42.160;24.746;2023-03-25T03:57:24;99167.38;;;11.58;81.06
11343;BME280;5726;42.160;24.746;2023-03-25T04:00:06;99159.19;;;11.63;80.30
11343;BME280;5726;42.160;24.746;2023-03-25T04:03:04;99164.56;;;11.63;80.35
11343;BME280;5726;42.160;24.746;2023-03-25T04:05:34;99166.16;;;11.64;80.07
11343;BME280;5726;42.160;24.746;2023-03-25T04:08:07;99175.22;;;11.90;78.37
11343;BME280;5726;42.160;24.746;2023-03-25T04:10:48;99169.84;;;11.90;78.31
11343;BME280;5726;42.160;24.746;2023-03-25T04:13:20;99169.97;;;11.85;78.14
11343;BME280;5726;42.160;24.746;2023-03-25T04:15:47;99167.94;;;11.68;78.31
11343;BME280;5726;42.160;24.746;2023-03-25T04:18:13;99173.94;;;11.39;80.33
11343;BME280;5726;42.160;24.746;2023-03-25T04:20:38;99170.38;;;11.43;80.24
11343;BME280;5726;42.160;24.746;2023-03-25T04:23:10;99179.81;;;11.54;80.25
11343;BME280;5726;42.160;24.746;2023-03-25T04:25:43;99176.53;;;11.57;79.75
11343;BME280;5726;42.160;24.746;2023-03-25T04:28:12;99188.03;;;11.57;79.83
11343;BME280;5726;42.160;24.746;2023-03-25T04:30:39;99193.94;;;11.81;78.53
11343;BME280;5726;42.160;24.746;2023-03-25T04:33:05;99189.63;;;11.93;78.45
11343;BME280;5726;42.160;24.746;2023-03-25T04:35:31;99187.44;;;12.17;77.98
11343;BME280;5726;42.160;24.746;2023-03-25T04:37:57;99187.94;;;12.49;76.48
11343;BME280;5726;42.160;24.746;2023-03-25T04:40:24;99195.13;;;12.92;73.81
11343;BME280;5726;42.160;24.746;2023-03-25T04:42:50;99187.34;;;13.21;73.14
11343;BME280;5726;42.160;24.746;2023-03-25T04:45:17;99191.03;;;13.59;71.66
11343;BME280;5726;42.160;24.746;2023-03-25T04:47:45;99195.66;;;14.00;69.86
11343;BME280;5726;42.160;24.746;2023-03-25T04:50:31;99197.53;;;14.33;67.96
11343;BME280;5726;42.160;24.746;2023-03-25T04:52:58;99196.13;;;14.28;68.48
11343;BME280;5726;42.160;24.746;2023-03-25T04:55:26;99209.16;;;14.88;65.94
11343;BME280;5726;42.160;24.746;2023-03-25T04:57:53;99208.69;;;14.86;65.33
11343;BME280;5726;42.160;24.746;2023-03-25T05:00:23;99203.66;;;14.68;66.19
11343;BME280;5726;42.160;24.746;2023-03-25T05:02:51;99204.47;;;15.05;64.62
11343;BME280;5726;42.160;24.746;2023-03-25T05:05:20;99201.78;;;15.05;65.34
11343;BME280;5726;42.160;24.746;2023-03-25T05:07:48;99188.72;;;15.44;63.72
11343;BME280;5726;42.160;24.746;2023-03-25T05:10:18;99183.56;;;16.12;61.22
11343;BME280;5726;42.160;24.746;2023-03-25T05:12:44;99193.72;;;16.15;60.52
11343;BME280;5726;42.160;24.746;2023-03-25T05:15:11;99201.81;;;16.56;65.52
11343;BME280;5726;42.160;24.746;2023-03-25T05:17:37;99189.13;;;16.48;63.16
11343;BME280;5726;42.160;24.746;2023-03-25T05:20:04;99180.78;;;16.41;61.75
11343;BME280;5726;42.160;24.746;2023-03-25T05:22:33;99185.19;;;17.13;65.60
11343;BME280;5726;42.160;24.746;2023-03-25T05:24:59;99185.84;;;17.70;59.33
11343;BME280;5726;42.160;24.746;2023-03-25T05:27:27;99185.19;;;17.49;56.98
11343;BME280;5726;42.160;24.746;2023-03-25T05:29:57;99187.72;;;17.42;57.14
11343;BME280;5726;42.160;24.746;2023-03-25T05:32:24;99192.03;;;16.75;59.45
11343;BME280;5726;42.160;24.746;2023-03-25T05:34:51;99189.03;;;17.00;58.59
11343;BME280;5726;42.160;24.746;2023-03-25T05:37:17;99187.88;;;17.01;58.64
11343;BME280;5726;42.160;24.746;2023-03-25T05:39:43;99184.09;;;17.26;57.59
11343;BME280;5726;42.160;24.746;2023-03-25T05:42:09;99182.66;;;17.79;56.67
11343;BME280;5726;42.160;24.746;2023-03-25T05:44:35;99183.41;;;17.92;55.97
11343;BME280;5726;42.160;24.746;2023-03-25T05:47:00;99176.13;;;17.80;55.65
11343;BME280;5726;42.160;24.746;2023-03-25T05:49:26;99176.13;;;17.80;55.78
11343;BME280;5726;42.160;24.746;2023-03-25T05:51:52;99173.38;;;17.92;55.63
11343;BME280;5726;42.160;24.746;2023-03-25T05:54:21;99182.09;;;18.25;55.07
11343;BME280;5726;42.160;24.746;2023-03-25T05:56:49;99183.03;;;18.60;53.37
11343;BME280;5726;42.160;24.746;2023-03-25T05:59:14;99182.63;;;18.73;53.90
11343;BME280;5726;42.160;24.746;2023-03-25T06:01:40;99180.94;;;18.53;53.75
11343;BME280;5726;42.160;24.746;2023-03-25T06:04:12;99183.94;;;18.64;54.66
11343;BME280;5726;42.160;24.746;2023-03-25T06:06:38;99192.16;;;18.52;53.78
11343;BME280;5726;42.160;24.746;2023-03-25T06:09:05;99184.78;;;18.52;54.04
11343;BME280;5726;42.160;24.746;2023-03-25T06:11:31;99185.75;;;19.02;53.05
11343;BME280;5726;42.160;24.746;2023-03-25T06:14:03;99183.03;;;19.52;51.70
11343;BME280;5726;42.160;24.746;2023-03-25T06:16:29;99182.97;;;19.82;51.44
11343;BME280;5726;42.160;24.746;2023-03-25T06:18:59;99187.44;;;19.90;50.94
11343;BME280;5726;42.160;24.746;2023-03-25T06:21:30;99180.50;;;20.12;50.50
11343;BME280;5726;42.160;24.746;2023-03-25T06:23:59;99180.00;;;20.25;50.37
11343;BME280;5726;42.160;24.746;2023-03-25T06:26:26;99180.03;;;20.47;49.37
11343;BME280;5726;42.160;24.746;2023-03-25T06:28:52;99171.34;;;20.61;49.39
11343;BME280;5726;42.160;24.746;2023-03-25T06:31:20;99182.41;;;20.67;49.54
11343;BME280;5726;42.160;24.746;2023-03-25T06:33:48;99185.28;;;20.56;49.81
11343;BME280;5726;42.160;24.746;2023-03-25T06:36:15;99172.44;;;20.37;49.45
11343;BME280;5726;42.160;24.746;2023-03-25T06:38:43;99173.66;;;20.59;49.17
11343;BME280;5726;42.160;24.746;2023-03-25T06:41:10;99172.78;;;20.73;49.10
11343;BME280;5726;42.160;24.746;2023-03-25T06:43:35;99175.66;;;20.62;49.12
11343;BME280;5726;42.160;24.746;2023-03-25T06:46:01;99173.75;;;20.84;49.29
11343;BME280;5726;42.160;24.746;2023-03-25T06:48:27;99168.97;;;21.00;48.63
11343;BME280;5726;42.160;24.746;2023-03-25T06:50:52;99174.44;;;21.00;47.88
11343;BME280;5726;42.160;24.746;2023-03-25T06:53:18;99171.69;;;21.00;47.80
11343;BME280;5726;42.160;24.746;2023-03-25T06:55:43;99173.38;;;20.86;47.78
11343;BME280;5726;42.160;24.746;2023-03-25T06:58:09;99175.16;;;20.97;48.62
11343;BME280;5726;42.160;24.746;2023-03-25T07:00:35;99167.16;;;20.85;48.07
11343;BME280;5726;42.160;24.746;2023-03-25T07:03:01;99171.97;;;21.17;48.20
11343;BME280;5726;42.160;24.746;2023-03-25T07:05:26;99169.00;;;21.48;47.16
11343;BME280;5726;42.160;24.746;2023-03-25T07:07:52;99171.63;;;21.45;47.40
11343;BME280;5726;42.160;24.746;2023-03-25T07:10:17;99173.44;;;20.89;48.36
11343;BME280;5726;42.160;24.746;2023-03-25T07:12:43;99173.69;;;20.81;49.50
11343;BME280;5726;42.160;24.746;2023-03-25T07:15:08;99171.91;;;21.14;48.33
11343;BME280;5726;42.160;24.746;2023-03-25T07:17:34;99164.13;;;21.38;48.17
11343;BME280;5726;42.160;24.746;2023-03-25T07:20:00;99165.19;;;21.56;47.29
11343;BME280;5726;42.160;24.746;2023-03-25T07:22:25;99167.56;;;21.58;47.19
11343;BME280;5726;42.160;24.746;2023-03-25T07:24:51;99174.78;;;21.72;46.36
11343;BME280;5726;42.160;24.746;2023-03-25T07:27:17;99160.28;;;21.17;47.85
11343;BME280;5726;42.160;24.746;2023-03-25T07:29:42;99168.28;;;21.07;48.55
11343;BME280;5726;42.160;24.746;2023-03-25T07:32:08;99166.88;;;21.16;48.24
11343;BME280;5726;42.160;24.746;2023-03-25T07:34:33;99164.69;;;21.25;48.21
11343;BME280;5726;42.160;24.746;2023-03-25T07:36:59;99160.41;;;21.24;47.62
11343;BME280;5726;42.160;24.746;2023-03-25T07:39:25;99168.50;;;21.68;47.55
11343;BME280;5726;42.160;24.746;2023-03-25T07:41:51;99159.53;;;21.97;46.86
11343;BME280;5726;42.160;24.746;2023-03-25T07:44:16;99159.19;;;22.02;47.16
11343;BME280;5726;42.160;24.746;2023-03-25T07:46:45;99151.97;;;22.16;46.38
11343;BME280;5726;42.160;24.746;2023-03-25T07:49:10;99149.28;;;22.53;45.54
11343;BME280;5726;42.160;24.746;2023-03-25T07:51:35;99151.59;;;22.51;45.31
11343;BME280;5726;42.160;24.746;2023-03-25T07:54:01;99140.91;;;22.06;45.36
11343;BME280;5726;42.160;24.746;2023-03-25T07:56:26;99140.75;;;21.92;47.08
11343;BME280;5726;42.160;24.746;2023-03-25T07:58:52;99134.00;;;21.54;47.96
11343;BME280;5726;42.160;24.746;2023-03-25T08:01:17;99136.56;;;21.72;48.11
11343;BME280;5726;42.160;24.746;2023-03-25T08:03:43;99143.72;;;21.80;47.86
11343;BME280;5726;42.160;24.746;2023-03-25T08:06:08;99132.22;;;21.97;47.32
11343;BME280;5726;42.160;24.746;2023-03-25T08:08:34;99125.44;;;21.84;47.57
11343;BME280;5726;42.160;24.746;2023-03-25T08:11:00;99127.59;;;22.01;46.94
11343;BME280;5726;42.160;24.746;2023-03-25T08:13:26;99127.13;;;22.25;45.99
11343;BME280;5726;42.160;24.746;2023-03-25T08:15:52;99122.56;;;22.36;46.09
11343;BME280;5726;42.160;24.746;2023-03-25T08:18:18;99110.34;;;22.62;45.85
11343;BME280;5726;42.160;24.746;2023-03-25T08:20:43;99126.47;;;22.74;44.84
11343;BME280;5726;42.160;24.746;2023-03-25T08:23:09;99119.63;;;22.94;43.71
11343;BME280;5726;42.160;24.746;2023-03-25T08:25:36;99126.75;;;22.62;45.15
11343;BME280;5726;42.160;24.746;2023-03-25T08:28:02;99122.44;;;22.25;45.49
11343;BME280;5726;42.160;24.746;2023-03-25T08:30:46;99126.53;;;21.80;46.94
11343;BME280;5726;42.160;24.746;2023-03-25T08:33:13;99116.09;;;21.56;47.86
11343;BME280;5726;42.160;24.746;2023-03-25T08:35:41;99121.50;;;21.53;47.87
11343;BME280;5726;42.160;24.746;2023-03-25T08:38:07;99123.63;;;21.95;47.22
11343;BME280;5726;42.160;24.746;2023-03-25T08:40:36;99126.13;;;22.07;47.17
11343;BME280;5726;42.160;24.746;2023-03-25T08:43:05;99115.41;;;22.60;45.93
11343;BME280;5726;42.160;24.746;2023-03-25T08:45:31;99116.44;;;22.46;46.53
11343;BME280;5726;42.160;24.746;2023-03-25T08:47:59;99114.81;;;22.41;45.54
11343;BME280;5726;42.160;24.746;2023-03-25T08:50:24;99110.50;;;22.80;45.40
11343;BME280;5726;42.160;24.746;2023-03-25T08:52:49;99107.47;;;22.92;44.13
11343;BME280;5726;42.160;24.746;2023-03-25T08:55:17;99100.28;;;22.73;44.74
11343;BME280;5726;42.160;24.746;2023-03-25T08:57:43;99093.22;;;22.69;45.09
11343;BME280;5726;42.160;24.746;2023-03-25T09:00:10;99088.53;;;22.69;45.03
11343;BME280;5726;42.160;24.746;2023-03-25T09:02:38;99079.88;;;23.07;44.56
11343;BME280;5726;42.160;24.746;2023-03-25T09:05:04;99079.50;;;23.05;44.75
11343;BME280;5726;42.160;24.746;2023-03-25T09:07:29;99072.03;;;23.02;44.48
11343;BME280;5726;42.160;24.746;2023-03-25T09:09:55;99064.69;;;23.16;43.75
11343;BME280;5726;42.160;24.746;2023-03-25T09:12:20;99061.91;;;22.59;44.04
11343;BME280;5726;42.160;24.746;2023-03-25T09:14:46;99060.22;;;22.48;44.75
11343;BME280;5726;42.160;24.746;2023-03-25T09:17:11;99059.44;;;22.48;45.05
11343;BME280;5726;42.160;24.746;2023-03-25T09:19:37;99046.28;;;22.60;44.76
11343;BME280;5726;42.160;24.746;2023-03-25T09:22:03;99046.41;;;22.74;44.21
11343;BME280;5726;42.160;24.746;2023-03-25T09:24:28;99045.53;;;22.63;44.30
11343;BME280;5726;42.160;24.746;2023-03-25T09:26:54;99038.25;;;22.81;43.77
11343;BME280;5726;42.160;24.746;2023-03-25T09:29:19;99031.38;;;22.54;44.35
11343;BME280;5726;42.160;24.746;2023-03-25T09:31:44;99038.41;;;22.52;44.46
11343;BME280;5726;42.160;24.746;2023-03-25T09:34:10;99035.88;;;22.79;44.26
11343;BME280;5726;42.160;24.746;2023-03-25T09:36:35;99034.97;;;22.61;45.07
11343;BME280;5726;42.160;24.746;2023-03-25T09:39:02;99033.66;;;22.45;45.54
11343;BME280;5726;42.160;24.746;2023-03-25T09:44:34;99027.28;;;22.77;44.24
11343;BME280;5726;42.160;24.746;2023-03-25T09:47:03;99017.88;;;22.71;43.81
11343;BME280;5726;42.160;24.746;2023-03-25T09:49:38;99023.06;;;22.87;43.41
11343;BME280;5726;42.160;24.746;2023-03-25T09:52:14;99006.88;;;22.64;43.78
11343;BME280;5726;42.160;24.746;2023-03-25T09:54:47;99006.53;;;22.69;44.28
11343;BME280;5726;42.160;24.746;2023-03-25T09:57:19;99008.06;;;22.67;44.61
11343;BME280;5726;42.160;24.746;2023-03-25T09:59:48;98997.91;;;22.67;44.01
11343;BME280;5726;42.160;24.746;2023-03-25T10:02:35;98989.16;;;22.45;44.18
11343;BME280;5726;42.160;24.746;2023-03-25T10:11:05;98963.03;;;23.04;44.15
11343;BME280;5726;42.160;24.746;2023-03-25T10:13:49;98955.00;;;22.68;44.61
11343;BME280;5726;42.160;24.746;2023-03-25T10:19:21;98951.13;;;22.76;45.04
11343;BME280;5726;42.160;24.746;2023-03-25T10:21:54;98953.69;;;22.52;45.71
11343;BME280;5726;42.160;24.746;2023-03-25T10:24:28;98936.88;;;22.50;45.39
11343;BME280;5726;42.160;24.746;2023-03-25T10:29:51;98924.88;;;22.64;45.31
11343;BME280;5726;42.160;24.746;2023-03-25T10:32:38;98917.88;;;22.70;45.83
11343;BME280;5726;42.160;24.746;2023-03-25T10:35:10;98918.34;;;22.79;45.15
11343;BME280;5726;42.160;24.746;2023-03-25T10:37:38;98913.72;;;22.90;45.17
11343;BME280;5726;42.160;24.746;2023-03-25T10:43:27;98899.75;;;23.02;44.30
11343;BME280;5726;42.160;24.746;2023-03-25T10:45:46;98898.56;;;22.96;43.87
11343;BME280;5726;42.160;24.746;2023-03-25T10:48:18;98885.56;;;22.90;43.82
11343;BME280;5726;42.160;24.746;2023-03-25T10:50:46;98884.13;;;23.03;44.14
11343;BME280;5726;42.160;24.746;2023-03-25T10:53:23;98886.13;;;23.16;43.69
11343;BME280;5726;42.160;24.746;2023-03-25T10:55:54;98881.84;;;23.22;43.74
11343;BME280;5726;42.160;24.746;2023-03-25T10:58:22;98876.81;;;23.38;43.34
11343;BME280;5726;42.160;24.746;2023-03-25T11:00:48;98870.22;;;23.63;42.86
11343;BME280;5726;42.160;24.746;2023-03-25T11:03:21;98867.16;;;23.85;42.17
11343;BME280;5726;42.160;24.746;2023-03-25T11:05:48;98863.22;;;23.86;42.46
11343;BME280;5726;42.160;24.746;2023-03-25T11:08:18;98864.41;;;23.89;41.52
11343;BME280;5726;42.160;24.746;2023-03-25T11:10:50;98859.31;;;23.80;42.36
11343;BME280;5726;42.160;24.746;2023-03-25T11:13:28;98855.81;;;23.76;42.05
11343;BME280;5726;42.160;24.746;2023-03-25T11:15:57;98846.41;;;23.95;41.75
11343;BME280;5726;42.160;24.746;2023-03-25T11:18:36;98848.38;;;24.04;41.34
11343;BME280;5726;42.160;24.746;2023-03-25T11:21:06;98838.19;;;24.15;41.11
11343;BME280;5726;42.160;24.746;2023-03-25T11:23:41;98835.03;;;24.17;41.57
11343;BME280;5726;42.160;24.746;2023-03-25T11:26:18;98827.19;;;24.26;41.39
11343;BME280;5726;42.160;24.746;2023-03-25T11:28:46;98824.09;;;23.79;41.45
11343;BME280;5726;42.160;24.746;2023-03-25T11:31:25;98820.19;;;24.04;41.47
11343;BME280;5726;42.160;24.746;2023-03-25T11:36:39;98815.44;;;24.50;40.69
11343;BME280;5726;42.160;24.746;2023-03-25T11:39:26;98807.97;;;24.57;40.80
11343;BME280;5726;42.160;24.746;2023-03-25T11:41:53;98803.72;;;24.21;41.79
11343;BME280;5726;42.160;24.746;2023-03-25T11:44:29;98795.09;;;24.44;40.90
11343;BME280;5726;42.160;24.746;2023-03-25T11:47:04;98796.63;;;24.48;41.42
11343;BME280;5726;42.160;24.746;2023-03-25T11:49:33;98786.81;;;24.61;40.57
11343;BME280;5726;42.160;24.746;2023-03-25T11:52:04;98778.63;;;24.44;40.79
11343;BME280;5726;42.160;24.746;2023-03-25T11:54:33;98779.41;;;24.48;39.98
11343;BME280;5726;42.160;24.746;2023-03-25T11:57:02;98769.63;;;24.40;40.15
11343;BME280;5726;42.160;24.746;2023-03-25T11:59:38;98759.38;;;24.57;40.17
11343;BME280;5726;42.160;24.746;2023-03-25T12:02:19;98762.84;;;24.75;39.70
11343;BME280;5726;42.160;24.746;2023-03-25T12:05:02;98761.97;;;24.96;39.38
11343;BME280;5726;42.160;24.746;2023-03-25T12:07:28;98760.38;;;24.95;38.85
11343;BME280;5726;42.160;24.746;2023-03-25T12:09:56;98749.09;;;24.82;39.55
11343;BME280;5726;42.160;24.746;2023-03-25T12:18:05;98736.13;;;24.90;38.40
11343;BME280;5726;42.160;24.746;2023-03-25T12:21:19;98725.94;;;24.94;38.79
11343;BME280;5726;42.160;24.746;2023-03-25T12:26:44;98726.97;;;24.35;39.64
11343;BME280;5726;42.160;24.746;2023-03-25T12:29:21;98720.63;;;24.59;40.12
11343;BME280;5726;42.160;24.746;2023-03-25T12:34:33;98726.41;;;24.75;39.27
11343;BME280;5726;42.160;24.746;2023-03-25T12:37:20;98712.69;;;24.82;39.26
11343;BME280;5726;42.160;24.746;2023-03-25T12:40:36;98710.72;;;24.75;39.14
11343;BME280;5726;42.160;24.746;2023-03-25T12:43:14;98708.53;;;24.43;39.76
11343;BME280;5726;42.160;24.746;2023-03-25T13:00:06;98678.00;;;24.48;40.21
11343;BME280;5726;42.160;24.746;2023-03-25T13:05:49;98660.44;;;24.35;40.52
11343;BME280;5726;42.160;24.746;2023-03-25T13:08:35;98662.00;;;24.36;40.91
11343;BME280;5726;42.160;24.746;2023-03-25T13:11:16;98654.13;;;24.45;41.42
11343;BME280;5726;42.160;24.746;2023-03-25T13:13:44;98653.34;;;24.44;41.92
11343;BME280;5726;42.160;24.746;2023-03-25T13:16:16;98644.69;;;24.52;42.35
11343;BME280;5726;42.160;24.746;2023-03-25T13:19:30;98640.69;;;24.67;42.33
11343;BME280;5726;42.160;24.746;2023-03-25T13:21:36;98647.31;;;24.66;42.13
11343;BME280;5726;42.160;24.746;2023-03-25T13:24:06;98642.31;;;24.54;41.38
11343;BME280;5726;42.160;24.746;2023-03-25T13:26:36;98643.91;;;24.52;41.55
11343;BME280;5726;42.160;24.746;2023-03-25T13:29:12;98643.63;;;24.33;42.16
11343;BME280;5726;42.160;24.746;2023-03-25T13:31:42;98646.38;;;24.33;42.40
11343;BME280;5726;42.160;24.746;2023-03-25T13:36:46;98636.94;;;24.34;42.28
11343;BME280;5726;42.160;24.746;2023-03-25T13:39:19;98633.88;;;24.18;42.18
11343;BME280;5726;42.160;24.746;2023-03-25T13:41:52;98631.06;;;24.39;41.97
11343;BME280;5726;42.160;24.746;2023-03-25T13:44:26;98628.31;;;24.35;41.42
11343;BME280;5726;42.160;24.746;2023-03-25T13:46:59;98622.03;;;24.38;41.61
11343;BME280;5726;42.160;24.746;2023-03-25T13:49:33;98620.50;;;24.34;41.15
11343;BME280;5726;42.160;24.746;2023-03-25T13:51:59;98629.50;;;24.38;41.20
11343;BME280;5726;42.160;24.746;2023-03-25T14:02:36;98604.13;;;24.20;43.16
11343;BME280;5726;42.160;24.746;2023-03-25T14:05:30;98602.16;;;24.24;42.20
11343;BME280;5726;42.160;24.746;2023-03-25T14:08:13;98615.09;;;24.13;42.33
11343;BME280;5726;42.160;24.746;2023-03-25T14:13:45;98597.50;;;24.14;42.07
11343;BME280;5726;42.160;24.746;2023-03-25T14:16:16;98587.34;;;24.04;41.92
11343;BME280;5726;42.160;24.746;2023-03-25T14:18:53;98590.88;;;24.08;41.78
11343;BME280;5726;42.160;24.746;2023-03-25T14:21:27;98599.94;;;23.91;41.33
11343;BME280;5726;42.160;24.746;2023-03-25T14:24:02;98589.44;;;23.79;41.76
11343;BME280;5726;42.160;24.746;2023-03-25T14:26:28;98584.34;;;23.78;41.82
11343;BME280;5726;42.160;24.746;2023-03-25T14:29:07;98590.59;;;23.78;41.31
11343;BME280;5726;42.160;24.746;2023-03-25T14:31:34;98585.91;;;23.75;41.66
11343;BME280;5726;42.160;24.746;2023-03-25T14:42:02;98572.94;;;23.86;40.97
11343;BME280;5726;42.160;24.746;2023-03-25T14:44:41;98572.22;;;23.82;40.92
11343;BME280;5726;42.160;24.746;2023-03-25T14:49:49;98566.72;;;23.79;40.97
11343;BME280;5726;42.160;24.746;2023-03-25T14:52:25;98562.81;;;23.80;40.22
11343;BME280;5726;42.160;24.746;2023-03-25T14:54:52;98565.88;;;23.99;39.79
11343;BME280;5726;42.160;24.746;2023-03-25T14:57:25;98563.56;;;23.94;40.05
11343;BME280;5726;42.160;24.746;2023-03-25T14:59:57;98567.47;;;23.90;40.65
11343;BME280;5726;42.160;24.746;2023-03-25T15:02:30;98570.63;;;23.81;41.61